createdAt,value
2022-11-09T00:00:05.314Z,0
2022-11-09T00:01:05.905Z,0
2022-11-09T00:02:06.499Z,0
2022-11-09T00:03:07.096Z,0
2022-11-09T00:04:07.684Z,0
2022-11-09T00:05:08.276Z,0
2022-11-09T00:06:08.868Z,0
2022-11-09T00:07:09.569Z,0
2022-11-09T00:08:10.142Z,0
2022-11-09T00:09:10.733Z,0
2022-11-09T00:10:11.378Z,0
2022-11-09T00:11:11.916Z,0
2022-11-09T00:12:12.508Z,0
2022-11-09T00:13:13.104Z,0
2022-11-09T00:14:13.697Z,0
2022-11-09T00:15:14.292Z,0
2022-11-09T00:16:14.882Z,0
2022-11-09T00:17:15.479Z,0
2022-11-09T00:18:16.072Z,0
2022-11-09T00:19:16.661Z,0
2022-11-09T00:20:17.268Z,0
2022-11-09T00:21:17.879Z,0
2022-11-09T00:22:18.472Z,0
2022-11-09T00:23:19.401Z,0
2022-11-09T00:24:20.103Z,0
2022-11-09T00:25:20.698Z,0
2022-11-09T00:26:21.290Z,0
2022-11-09T00:27:21.885Z,0
2022-11-09T00:28:22.481Z,0
2022-11-09T00:29:23.069Z,0
2022-11-09T00:30:23.682Z,0
2022-11-09T00:31:24.279Z,0
2022-11-09T00:32:27.810Z,0
2022-11-09T00:33:26.455Z,0
2022-11-09T00:34:27.046Z,0
2022-11-09T00:35:27.640Z,0
2022-11-09T00:36:28.229Z,0
2022-11-09T00:37:28.929Z,0
2022-11-09T00:38:29.483Z,0
2022-11-09T00:39:30.077Z,0
2022-11-09T00:40:30.668Z,0
2022-11-09T00:41:31.260Z,0
2022-11-09T00:42:31.854Z,0
2022-11-09T00:43:32.447Z,0
2022-11-09T00:44:33.205Z,0
2022-11-09T00:45:33.807Z,0
2022-11-09T00:46:34.392Z,0
2022-11-09T00:47:35.193Z,0
2022-11-09T00:48:35.804Z,0
2022-11-09T00:49:36.400Z,0
2022-11-09T00:50:36.992Z,0
2022-11-09T00:51:37.585Z,0
2022-11-09T00:52:38.176Z,0
2022-11-09T00:53:38.770Z,0
2022-11-09T00:54:39.363Z,0
2022-11-09T00:55:39.956Z,0
2022-11-09T00:56:40.555Z,0
2022-11-09T00:57:41.162Z,0
2022-11-09T00:58:41.756Z,0
2022-11-09T00:59:42.347Z,0
2022-11-09T01:00:43.003Z,0
2022-11-09T01:01:43.631Z,0
2022-11-09T01:02:44.175Z,0
2022-11-09T01:03:44.768Z,0
2022-11-09T01:04:45.359Z,0
2022-11-09T01:05:45.954Z,0
2022-11-09T01:06:46.628Z,0
2022-11-09T01:07:47.211Z,0
2022-11-09T01:08:47.821Z,0
2022-11-09T01:09:48.415Z,0
2022-11-09T01:10:49.030Z,0
2022-11-09T01:11:49.639Z,0
2022-11-09T01:12:50.233Z,0
2022-11-09T01:13:50.846Z,0
2022-11-09T01:14:51.438Z,0
2022-11-09T01:15:52.030Z,0
2022-11-09T01:16:52.631Z,0
2022-11-09T01:17:53.235Z,0
2022-11-09T01:18:53.829Z,0
2022-11-09T01:19:54.420Z,0
2022-11-09T01:20:55.016Z,0
2022-11-09T01:21:55.607Z,0
2022-11-09T01:22:56.199Z,0
2022-11-09T01:23:56.793Z,0
2022-11-09T01:24:57.384Z,0
2022-11-09T01:25:57.979Z,0
2022-11-09T01:26:58.572Z,0
2022-11-09T01:27:59.165Z,0
2022-11-09T01:28:59.778Z,0
2022-11-09T01:30:00.372Z,0
2022-11-09T01:31:00.964Z,0
2022-11-09T01:32:01.561Z,0
2022-11-09T01:33:02.152Z,0
2022-11-09T01:34:02.745Z,0
2022-11-09T01:35:03.363Z,0
2022-11-09T01:36:03.974Z,0
2022-11-09T01:37:04.560Z,0
2022-11-09T01:38:05.158Z,0
2022-11-09T01:39:05.746Z,0
2022-11-09T01:40:06.343Z,0
2022-11-09T01:41:06.953Z,0
2022-11-09T01:42:07.547Z,0
2022-11-09T01:43:08.138Z,0
2022-11-09T01:44:08.743Z,0
2022-11-09T01:45:09.329Z,0
2022-11-09T01:46:09.924Z,0
2022-11-09T01:47:10.517Z,0
2022-11-09T01:48:11.108Z,0
2022-11-09T01:49:11.700Z,0
2022-11-09T01:50:12.295Z,0
2022-11-09T01:51:12.887Z,0
2022-11-09T01:52:13.482Z,0
2022-11-09T01:53:14.069Z,0
2022-11-09T01:54:14.684Z,0
2022-11-09T01:55:15.275Z,0
2022-11-09T01:56:15.868Z,0
2022-11-09T01:57:16.458Z,0
2022-11-09T01:58:17.053Z,0
2022-11-09T01:59:17.646Z,0
2022-11-09T02:00:18.260Z,0
2022-11-09T02:01:18.951Z,0
2022-11-09T02:02:19.475Z,0
2022-11-09T02:03:20.298Z,0
2022-11-09T02:04:20.673Z,0
2022-11-09T02:05:21.282Z,0
2022-11-09T02:06:21.880Z,0
2022-11-09T02:07:22.488Z,0
2022-11-09T02:08:23.091Z,0
2022-11-09T02:09:23.678Z,0
2022-11-09T02:10:24.270Z,0
2022-11-09T02:11:24.860Z,0
2022-11-09T02:12:25.454Z,0
2022-11-09T02:13:26.054Z,0
2022-11-09T02:14:26.658Z,0
2022-11-09T02:15:27.247Z,0
2022-11-09T02:16:27.842Z,0
2022-11-09T02:17:28.434Z,0
2022-11-09T02:18:29.029Z,0
2022-11-09T02:19:29.620Z,0
2022-11-09T02:20:30.214Z,0
2022-11-09T02:21:30.809Z,0
2022-11-09T02:22:31.400Z,0
2022-11-09T02:23:31.992Z,0
2022-11-09T02:24:32.585Z,0
2022-11-09T02:25:33.177Z,0
2022-11-09T02:26:33.775Z,0
2022-11-09T02:27:34.365Z,0
2022-11-09T02:28:34.991Z,0
2022-11-09T02:29:35.574Z,0
2022-11-09T02:30:36.167Z,0
2022-11-09T02:31:36.765Z,0
2022-11-09T02:32:37.353Z,0
2022-11-09T02:33:37.948Z,0
2022-11-09T02:34:38.539Z,0
2022-11-09T02:35:39.135Z,0
2022-11-09T02:36:39.725Z,0
2022-11-09T02:37:40.320Z,0
2022-11-09T02:38:40.912Z,0
2022-11-09T02:39:41.503Z,0
2022-11-09T02:40:42.097Z,0
2022-11-09T02:41:42.695Z,0
2022-11-09T02:42:43.284Z,0
2022-11-09T02:43:43.877Z,0
2022-11-09T02:44:44.469Z,0
2022-11-09T02:45:45.063Z,0
2022-11-09T02:46:45.654Z,0
2022-11-09T02:47:46.253Z,0
2022-11-09T02:48:46.842Z,0
2022-11-09T02:49:47.435Z,0
2022-11-09T02:50:48.037Z,0
2022-11-09T02:51:48.620Z,0
2022-11-09T02:52:49.215Z,0
2022-11-09T02:53:49.806Z,0
2022-11-09T02:54:50.399Z,0
2022-11-09T02:55:50.995Z,0
2022-11-09T02:56:51.608Z,0
2022-11-09T02:57:52.222Z,0
2022-11-09T02:58:52.813Z,0
2022-11-09T02:59:53.405Z,0
2022-11-09T03:00:54.063Z,0
2022-11-09T03:01:54.600Z,0
2022-11-09T03:02:55.194Z,0
2022-11-09T03:03:55.788Z,0
2022-11-09T03:04:56.381Z,0
2022-11-09T03:05:56.976Z,0
2022-11-09T03:06:57.660Z,0
2022-11-09T03:07:58.226Z,0
2022-11-09T03:08:58.821Z,0
2022-11-09T03:09:59.432Z,0
2022-11-09T03:11:00.023Z,0
2022-11-09T03:12:00.617Z,0
2022-11-09T03:13:01.210Z,0
2022-11-09T03:14:01.803Z,0
2022-11-09T03:15:02.398Z,0
2022-11-09T03:16:02.989Z,0
2022-11-09T03:17:03.601Z,0
2022-11-09T03:18:04.195Z,0
2022-11-09T03:19:04.787Z,0
2022-11-09T03:20:05.381Z,0
2022-11-09T03:21:05.971Z,0
2022-11-09T03:22:06.567Z,0
2022-11-09T03:23:07.162Z,0
2022-11-09T03:24:07.751Z,0
2022-11-09T03:25:08.343Z,0
2022-11-09T03:26:08.933Z,0
2022-11-09T03:27:09.528Z,0
2022-11-09T03:28:10.119Z,0
2022-11-09T03:29:10.713Z,0
2022-11-09T03:30:11.305Z,0
2022-11-09T03:31:11.896Z,0
2022-11-09T03:32:12.490Z,0
2022-11-09T03:33:13.082Z,0
2022-11-09T03:34:13.675Z,0
2022-11-09T03:35:14.267Z,0
2022-11-09T03:36:14.859Z,0
2022-11-09T03:37:15.507Z,0
2022-11-09T03:38:16.055Z,0
2022-11-09T03:39:16.651Z,0
2022-11-09T03:40:17.241Z,0
2022-11-09T03:41:17.832Z,0
2022-11-09T03:42:18.426Z,0
2022-11-09T03:43:19.390Z,0
2022-11-09T03:44:20.178Z,0
2022-11-09T03:45:20.769Z,0
2022-11-09T03:46:21.364Z,0
2022-11-09T03:47:21.964Z,0
2022-11-09T03:48:22.546Z,0
2022-11-09T03:49:23.140Z,0
2022-11-09T03:50:23.734Z,0
2022-11-09T03:51:24.344Z,0
2022-11-09T03:52:24.936Z,0
2022-11-09T03:53:25.528Z,0
2022-11-09T03:54:26.122Z,0
2022-11-09T03:55:26.715Z,0
2022-11-09T03:56:27.310Z,0
2022-11-09T03:57:27.919Z,0
2022-11-09T03:58:28.512Z,0
2022-11-09T03:59:29.106Z,0
2022-11-09T04:00:29.702Z,0
2022-11-09T04:01:30.465Z,0
2022-11-09T04:02:31.025Z,0
2022-11-09T04:03:31.618Z,0
2022-11-09T04:04:32.213Z,0
2022-11-09T04:05:32.809Z,0
2022-11-09T04:06:33.457Z,0
2022-11-09T04:07:34.023Z,0
2022-11-09T04:08:34.614Z,0
2022-11-09T04:09:35.207Z,0
2022-11-09T04:10:35.804Z,0
2022-11-09T04:11:36.402Z,0
2022-11-09T04:12:36.985Z,0
2022-11-09T04:13:37.576Z,0
2022-11-09T04:14:38.206Z,0
2022-11-09T04:15:38.784Z,0
2022-11-09T04:16:39.379Z,0
2022-11-09T04:17:39.969Z,0
2022-11-09T04:18:40.566Z,0
2022-11-09T04:19:41.157Z,0
2022-11-09T04:20:41.755Z,0
2022-11-09T04:21:42.364Z,0
2022-11-09T04:22:42.976Z,0
2022-11-09T04:23:43.570Z,0
2022-11-09T04:24:44.182Z,0
2022-11-09T04:25:44.771Z,0
2022-11-09T04:26:45.365Z,0
2022-11-09T04:27:45.957Z,0
2022-11-09T04:28:46.551Z,0
2022-11-09T04:29:47.142Z,0
2022-11-09T04:30:47.736Z,0
2022-11-09T04:31:48.325Z,0
2022-11-09T04:32:48.921Z,0
2022-11-09T04:33:49.512Z,0
2022-11-09T04:34:50.104Z,0
2022-11-09T04:35:50.697Z,0
2022-11-09T04:36:51.292Z,0
2022-11-09T04:37:51.884Z,0
2022-11-09T04:38:52.477Z,0
2022-11-09T04:39:53.067Z,0
2022-11-09T04:40:53.661Z,0
2022-11-09T04:41:54.254Z,0
2022-11-09T04:42:54.856Z,0
2022-11-09T04:43:55.438Z,0
2022-11-09T04:44:56.052Z,0
2022-11-09T04:45:56.641Z,0
2022-11-09T04:46:57.254Z,0
2022-11-09T04:47:57.864Z,0
2022-11-09T04:48:58.460Z,0
2022-11-09T04:49:59.052Z,0
2022-11-09T04:50:59.645Z,0
2022-11-09T04:52:00.236Z,0
2022-11-09T04:53:04.073Z,0
2022-11-09T04:54:02.413Z,0
2022-11-09T04:55:03.010Z,0
2022-11-09T04:56:03.621Z,0
2022-11-09T04:57:04.219Z,0
2022-11-09T04:58:04.805Z,0
2022-11-09T04:59:05.398Z,0
2022-11-09T05:00:05.991Z,0
2022-11-09T05:01:06.590Z,0
2022-11-09T05:02:07.198Z,0
2022-11-09T05:03:07.791Z,0
2022-11-09T05:04:08.416Z,0
2022-11-09T05:05:08.983Z,0
2022-11-09T05:06:09.575Z,0
2022-11-09T05:07:10.223Z,0
2022-11-09T05:08:10.792Z,0
2022-11-09T05:09:11.386Z,0
2022-11-09T05:10:11.988Z,0
2022-11-09T05:11:12.573Z,0
2022-11-09T05:12:13.164Z,0
2022-11-09T05:13:13.757Z,0
2022-11-09T05:14:14.351Z,0
2022-11-09T05:15:14.948Z,0
2022-11-09T05:16:15.559Z,0
2022-11-09T05:17:16.152Z,0
2022-11-09T05:18:16.744Z,0
2022-11-09T05:19:17.338Z,0
2022-11-09T05:20:17.932Z,0
2022-11-09T05:21:18.523Z,0
2022-11-09T05:22:19.116Z,0
2022-11-09T05:23:19.992Z,0
2022-11-09T05:24:20.750Z,0
2022-11-09T05:25:21.360Z,0
2022-11-09T05:26:21.952Z,0
2022-11-09T05:27:22.547Z,0
2022-11-09T05:28:23.139Z,0
2022-11-09T05:29:23.733Z,0
2022-11-09T05:30:24.331Z,0
2022-11-09T05:31:24.919Z,0
2022-11-09T05:32:25.531Z,0
2022-11-09T05:33:26.126Z,0
2022-11-09T05:34:26.719Z,0
2022-11-09T05:35:27.310Z,0
2022-11-09T05:36:27.929Z,0
2022-11-09T05:37:28.497Z,0
2022-11-09T05:38:29.106Z,0
2022-11-09T05:39:29.699Z,0
2022-11-09T05:40:30.293Z,0
2022-11-09T05:41:30.889Z,0
2022-11-09T05:42:31.481Z,0
2022-11-09T05:43:32.073Z,0
2022-11-09T05:44:32.664Z,0
2022-11-09T05:45:42.550Z,0
2022-11-09T05:46:34.844Z,0
2022-11-09T05:47:35.438Z,0
2022-11-09T05:48:36.029Z,0
2022-11-09T05:49:36.624Z,0
2022-11-09T05:50:37.217Z,0
2022-11-09T05:51:37.811Z,0
2022-11-09T05:52:38.405Z,0
2022-11-09T05:53:42.355Z,0
2022-11-09T05:54:40.581Z,0
2022-11-09T05:55:41.174Z,0
2022-11-09T05:56:41.765Z,0
2022-11-09T05:57:42.361Z,0
2022-11-09T05:58:42.951Z,0
2022-11-09T05:59:43.545Z,0
2022-11-09T06:00:44.137Z,0
2022-11-09T06:01:44.759Z,0
2022-11-09T06:02:45.323Z,0
2022-11-09T06:03:45.936Z,0
2022-11-09T06:04:46.544Z,0
2022-11-09T06:05:47.137Z,0
2022-11-09T06:06:47.831Z,0
2022-11-09T06:07:48.408Z,0
2022-11-09T06:08:48.999Z,0
2022-11-09T06:09:49.613Z,0
2022-11-09T06:10:50.212Z,0
2022-11-09T06:11:50.826Z,0
2022-11-09T06:12:51.417Z,0
2022-11-09T06:13:52.011Z,0
2022-11-09T06:14:52.610Z,0
2022-11-09T06:15:53.195Z,0
2022-11-09T06:16:53.789Z,0
2022-11-09T06:17:54.392Z,0
2022-11-09T06:18:54.976Z,0
2022-11-09T06:19:55.583Z,0
2022-11-09T06:20:56.167Z,0
2022-11-09T06:21:56.775Z,0
2022-11-09T06:23:02.525Z,0
2022-11-09T06:23:58.976Z,0
2022-11-09T06:24:59.568Z,0
2022-11-09T06:26:00.165Z,0
2022-11-09T06:27:00.755Z,0
2022-11-09T06:28:01.352Z,5
2022-11-09T06:29:01.966Z,5
2022-11-09T06:30:02.569Z,5
2022-11-09T06:31:03.248Z,11
2022-11-09T06:32:03.766Z,11
2022-11-09T06:33:04.359Z,11
2022-11-09T06:34:04.958Z,11
2022-11-09T06:35:05.551Z,16
2022-11-09T06:36:06.149Z,16
2022-11-09T06:37:06.744Z,16
2022-11-09T06:38:07.345Z,16
2022-11-09T06:39:07.936Z,22
2022-11-09T06:40:08.535Z,22
2022-11-09T06:41:09.130Z,22
2022-11-09T06:42:09.785Z,22
2022-11-09T06:43:10.334Z,22
2022-11-09T06:44:10.932Z,28
2022-11-09T06:45:11.523Z,28
2022-11-09T06:46:12.122Z,33
2022-11-09T06:47:12.740Z,33
2022-11-09T06:48:13.332Z,39
2022-11-09T06:49:13.929Z,39
2022-11-09T06:50:14.527Z,45
2022-11-09T06:51:15.125Z,45
2022-11-09T06:52:15.723Z,45
2022-11-09T06:53:16.323Z,45
2022-11-09T06:54:16.935Z,50
2022-11-09T06:55:17.533Z,56
2022-11-09T06:56:18.130Z,56
2022-11-09T06:57:18.728Z,61
2022-11-09T06:58:19.329Z,67
2022-11-09T06:59:19.944Z,67
2022-11-09T07:00:20.549Z,67
2022-11-09T07:01:21.207Z,73
2022-11-09T07:02:21.794Z,73
2022-11-09T07:03:22.696Z,78
2022-11-09T07:04:23.609Z,78
2022-11-09T07:05:24.253Z,84
2022-11-09T07:06:24.888Z,84
2022-11-09T07:07:28.236Z,90
2022-11-09T07:08:27.078Z,90
2022-11-09T07:09:27.674Z,95
2022-11-09T07:10:28.268Z,95
2022-11-09T07:11:28.869Z,101
2022-11-09T07:12:29.467Z,101
2022-11-09T07:13:30.066Z,106
2022-11-09T07:14:30.663Z,112
2022-11-09T07:15:31.265Z,112
2022-11-09T07:16:31.857Z,112
2022-11-09T07:17:32.455Z,112
2022-11-09T07:18:33.052Z,112
2022-11-09T07:19:33.651Z,118
2022-11-09T07:20:34.248Z,123
2022-11-09T07:21:34.849Z,129
2022-11-09T07:22:35.462Z,135
2022-11-09T07:23:36.060Z,140
2022-11-09T07:24:36.657Z,146
2022-11-09T07:25:37.253Z,151
2022-11-09T07:26:37.850Z,157
2022-11-09T07:27:38.469Z,163
2022-11-09T07:28:39.065Z,168
2022-11-09T07:29:39.665Z,168
2022-11-09T07:30:40.274Z,174
2022-11-09T07:31:40.860Z,174
2022-11-09T07:33:43.048Z,180
2022-11-09T07:34:43.647Z,185
2022-11-09T07:35:44.244Z,185
2022-11-09T07:36:44.841Z,185
2022-11-09T07:37:45.439Z,185
2022-11-09T07:38:46.036Z,180
2022-11-09T07:39:46.635Z,180
2022-11-09T07:40:47.238Z,185
2022-11-09T07:41:47.860Z,191
2022-11-09T07:42:48.443Z,196
2022-11-09T07:43:49.044Z,196
2022-11-09T07:44:49.641Z,196
2022-11-09T07:45:50.240Z,202
2022-11-09T07:46:50.922Z,202
2022-11-09T07:47:51.669Z,208
2022-11-09T07:48:52.268Z,208
2022-11-09T07:49:52.865Z,208
2022-11-09T07:50:53.461Z,208
2022-11-09T07:51:54.061Z,202
2022-11-09T07:52:54.677Z,202
2022-11-09T07:53:55.275Z,202
2022-11-09T07:54:55.870Z,208
2022-11-09T07:55:56.470Z,208
2022-11-09T07:56:57.087Z,219
2022-11-09T07:57:57.706Z,225
2022-11-09T07:58:58.300Z,230
2022-11-09T07:59:58.901Z,236
2022-11-09T08:00:59.496Z,247
2022-11-09T08:02:00.163Z,264
2022-11-09T08:03:00.761Z,281
2022-11-09T08:04:01.366Z,292
2022-11-09T08:05:01.953Z,303
2022-11-09T08:06:02.572Z,315
2022-11-09T08:07:03.194Z,326
2022-11-09T08:08:03.804Z,326
2022-11-09T08:09:04.404Z,320
2022-11-09T08:10:05.022Z,331
2022-11-09T08:11:05.618Z,354
2022-11-09T08:12:06.213Z,365
2022-11-09T08:13:06.811Z,376
2022-11-09T08:14:07.410Z,376
2022-11-09T08:15:08.006Z,365
2022-11-09T08:16:08.605Z,365
2022-11-09T08:17:09.203Z,365
2022-11-09T08:18:09.801Z,354
2022-11-09T08:19:10.397Z,348
2022-11-09T08:20:10.996Z,337
2022-11-09T08:21:11.614Z,331
2022-11-09T08:22:12.215Z,337
2022-11-09T08:23:12.811Z,331
2022-11-09T08:24:13.432Z,326
2022-11-09T08:25:14.026Z,331
2022-11-09T08:26:14.627Z,354
2022-11-09T08:27:15.223Z,382
2022-11-09T08:28:15.821Z,410
2022-11-09T08:29:16.418Z,416
2022-11-09T08:30:17.017Z,410
2022-11-09T08:31:17.673Z,410
2022-11-09T08:32:18.214Z,393
2022-11-09T08:33:18.810Z,365
2022-11-09T08:34:19.413Z,343
2022-11-09T08:35:20.008Z,331
2022-11-09T08:36:20.622Z,343
2022-11-09T08:37:21.219Z,365
2022-11-09T08:38:22.218Z,371
2022-11-09T08:39:22.896Z,382
2022-11-09T08:40:23.492Z,433
2022-11-09T08:41:24.093Z,506
2022-11-09T08:42:24.693Z,579
2022-11-09T08:43:25.293Z,607
2022-11-09T08:44:25.891Z,646
2022-11-09T08:45:26.490Z,523
2022-11-09T08:46:27.092Z,540
2022-11-09T08:47:27.688Z,568
2022-11-09T08:48:28.290Z,556
2022-11-09T08:49:28.894Z,630
2022-11-09T08:50:29.534Z,669
2022-11-09T08:51:30.110Z,877
2022-11-09T08:52:30.711Z,843
2022-11-09T08:53:31.309Z,759
2022-11-09T08:54:31.907Z,793
2022-11-09T08:55:32.527Z,748
2022-11-09T08:56:33.134Z,416
2022-11-09T08:57:33.724Z,405
2022-11-09T08:58:34.323Z,393
2022-11-09T08:59:34.918Z,376
2022-11-09T09:00:35.518Z,517
2022-11-09T09:01:36.150Z,551
2022-11-09T09:02:36.742Z,444
2022-11-09T09:03:37.327Z,624
2022-11-09T09:04:37.943Z,720
2022-11-09T09:05:38.541Z,669
2022-11-09T09:06:39.176Z,585
2022-11-09T09:07:39.743Z,540
2022-11-09T09:08:40.335Z,585
2022-11-09T09:09:40.952Z,596
2022-11-09T09:10:41.553Z,585
2022-11-09T09:11:42.151Z,573
2022-11-09T09:12:42.768Z,573
2022-11-09T09:13:43.892Z,680
2022-11-09T09:14:44.475Z,675
2022-11-09T09:15:45.072Z,753
2022-11-09T09:16:45.673Z,562
2022-11-09T09:17:46.270Z,630
2022-11-09T09:18:46.869Z,438
2022-11-09T09:19:50.130Z,438
2022-11-09T09:20:49.062Z,495
2022-11-09T09:21:49.678Z,545
2022-11-09T09:22:50.277Z,545
2022-11-09T09:23:50.875Z,523
2022-11-09T09:24:51.475Z,534
2022-11-09T09:25:55.191Z,579
2022-11-09T09:26:53.668Z,641
2022-11-09T09:27:54.268Z,697
2022-11-09T09:28:54.885Z,1203
2022-11-09T09:29:55.481Z,1136
2022-11-09T09:30:56.083Z,1147
2022-11-09T09:31:56.679Z,1158
2022-11-09T09:32:57.283Z,855
2022-11-09T09:33:57.897Z,1051
2022-11-09T09:34:58.498Z,697
2022-11-09T09:35:59.107Z,596
2022-11-09T09:36:59.715Z,568
2022-11-09T09:38:00.317Z,742
2022-11-09T09:39:00.936Z,1305
2022-11-09T09:40:01.538Z,691
2022-11-09T09:41:02.135Z,630
2022-11-09T09:42:02.735Z,635
2022-11-09T09:43:03.333Z,573
2022-11-09T09:44:03.932Z,556
2022-11-09T09:45:04.549Z,596
2022-11-09T09:46:05.147Z,646
2022-11-09T09:47:05.752Z,703
2022-11-09T09:48:06.366Z,1569
2022-11-09T09:49:06.964Z,950
2022-11-09T09:50:07.601Z,1091
2022-11-09T09:51:08.176Z,658
2022-11-09T09:52:08.775Z,579
2022-11-09T09:53:23.766Z,663
2022-11-09T09:54:10.963Z,781
2022-11-09T09:55:11.564Z,832
2022-11-09T09:56:12.269Z,781
2022-11-09T09:57:12.955Z,911
2022-11-09T09:58:13.550Z,838
2022-11-09T09:59:14.155Z,1383
2022-11-09T10:00:14.765Z,1164
2022-11-09T10:01:15.349Z,1096
2022-11-09T10:02:15.949Z,1226
2022-11-09T10:03:16.552Z,1001
2022-11-09T10:04:17.188Z,725
2022-11-09T10:05:17.774Z,1130
2022-11-09T10:06:18.372Z,900
2022-11-09T10:07:19.174Z,933
2022-11-09T10:08:20.090Z,916
2022-11-09T10:09:20.809Z,888
2022-11-09T10:10:21.403Z,956
2022-11-09T10:11:22.004Z,1254
2022-11-09T10:12:22.603Z,1215
2022-11-09T10:13:23.206Z,1530
2022-11-09T10:14:23.805Z,1822
2022-11-09T10:15:24.408Z,1507
2022-11-09T10:16:25.005Z,1833
2022-11-09T10:17:25.609Z,2266
2022-11-09T10:18:26.206Z,2205
2022-11-09T10:19:26.806Z,2193
2022-11-09T10:20:27.409Z,2193
2022-11-09T10:21:28.008Z,2092
2022-11-09T10:22:28.612Z,2098
2022-11-09T10:23:29.220Z,1068
2022-11-09T10:24:29.831Z,1867
2022-11-09T10:25:50.784Z,2115
2022-11-09T10:26:32.026Z,2148
2022-11-09T10:27:32.625Z,2137
2022-11-09T10:28:54.215Z,2154
2022-11-09T10:29:34.839Z,1710
2022-11-09T10:30:35.438Z,2098
2022-11-09T10:31:36.037Z,2053
2022-11-09T10:32:36.645Z,1946
2022-11-09T10:33:37.255Z,1856
2022-11-09T10:34:37.854Z,1800
2022-11-09T10:35:38.456Z,1861
2022-11-09T10:36:39.077Z,1839
2022-11-09T10:37:39.681Z,1676
2022-11-09T10:38:40.281Z,1743
2022-11-09T10:39:40.882Z,1766
2022-11-09T10:40:41.480Z,1873
2022-11-09T10:41:42.083Z,1963
2022-11-09T10:42:42.703Z,1929
2022-11-09T10:43:43.304Z,1923
2022-11-09T10:44:43.908Z,1895
2022-11-09T10:45:44.508Z,1878
2022-11-09T10:46:45.108Z,1760
2022-11-09T10:47:45.711Z,1845
2022-11-09T10:48:46.329Z,2092
2022-11-09T10:49:46.948Z,2086
2022-11-09T10:50:47.574Z,2030
2022-11-09T10:51:48.190Z,1912
2022-11-09T10:52:48.791Z,2283
2022-11-09T10:53:49.395Z,2143
2022-11-09T10:54:49.997Z,1929
2022-11-09T10:55:50.615Z,1299
2022-11-09T10:57:05.720Z,2216
2022-11-09T10:57:52.826Z,1963
2022-11-09T10:58:53.431Z,911
2022-11-09T10:59:54.046Z,2216
2022-11-09T11:00:54.673Z,2385
2022-11-09T11:02:00.982Z,2452
2022-11-09T11:02:56.837Z,2441
2022-11-09T11:03:57.436Z,2188
2022-11-09T11:04:58.037Z,2092
2022-11-09T11:05:58.637Z,2131
2022-11-09T11:06:59.306Z,2008
2022-11-09T11:07:59.902Z,1867
2022-11-09T11:09:00.500Z,2261
2022-11-09T11:10:01.109Z,1996
2022-11-09T11:11:19.497Z,1951
2022-11-09T11:12:03.298Z,1974
2022-11-09T11:13:03.898Z,1980
2022-11-09T11:14:04.499Z,1895
2022-11-09T11:15:05.139Z,1783
2022-11-09T11:16:05.699Z,1738
2022-11-09T11:17:06.302Z,1591
2022-11-09T11:18:06.901Z,1513
2022-11-09T11:19:07.504Z,1856
2022-11-09T11:20:08.104Z,990
2022-11-09T11:21:08.707Z,1996
2022-11-09T11:22:09.326Z,849
2022-11-09T11:23:09.927Z,1839
2022-11-09T11:24:10.526Z,2064
2022-11-09T11:25:11.127Z,1957
2022-11-09T11:26:11.730Z,1845
2022-11-09T11:27:12.330Z,2317
2022-11-09T11:28:12.930Z,2368
2022-11-09T11:29:13.533Z,1035
2022-11-09T11:30:14.132Z,1771
2022-11-09T11:31:14.731Z,978
2022-11-09T11:32:15.353Z,1220
2022-11-09T11:33:15.954Z,2092
2022-11-09T11:34:38.497Z,1715
2022-11-09T11:35:18.150Z,1648
2022-11-09T11:36:18.751Z,1378
2022-11-09T11:37:19.372Z,1074
2022-11-09T11:38:20.380Z,1406
2022-11-09T11:39:21.189Z,1822
2022-11-09T11:40:21.810Z,1237
2022-11-09T11:41:22.889Z,1254
2022-11-09T11:42:23.488Z,1074
2022-11-09T11:43:24.100Z,1102
2022-11-09T11:44:24.690Z,1940
2022-11-09T11:45:40.136Z,1586
2022-11-09T11:46:26.777Z,2075
2022-11-09T11:47:27.379Z,1822
2022-11-09T11:48:27.997Z,1642
2022-11-09T11:49:28.597Z,1597
2022-11-09T11:50:29.197Z,1462
2022-11-09T11:51:29.798Z,1389
2022-11-09T11:52:30.398Z,1096
2022-11-09T11:53:31.018Z,1428
2022-11-09T11:54:31.620Z,1513
2022-11-09T11:55:32.221Z,1918
2022-11-09T11:56:32.819Z,2160
2022-11-09T11:57:33.420Z,2317
2022-11-09T11:58:34.018Z,1968
2022-11-09T11:59:34.638Z,793
2022-11-09T12:00:35.234Z,787
2022-11-09T12:01:35.833Z,708
2022-11-09T12:02:36.485Z,686
2022-11-09T12:03:37.067Z,883
2022-11-09T12:04:37.668Z,2053
2022-11-09T12:05:38.268Z,2143
2022-11-09T12:06:39.815Z,2345
2022-11-09T12:07:40.461Z,2458
2022-11-09T12:08:41.062Z,1012
2022-11-09T12:09:41.662Z,1338
2022-11-09T12:10:42.283Z,770
2022-11-09T12:11:42.880Z,731
2022-11-09T12:12:43.480Z,703
2022-11-09T12:13:49.330Z,1440
2022-11-09T12:14:45.675Z,843
2022-11-09T12:15:46.284Z,1170
2022-11-09T12:16:46.876Z,618
2022-11-09T12:17:47.477Z,725
2022-11-09T12:18:48.074Z,815
2022-11-09T12:19:48.675Z,945
2022-11-09T12:20:49.280Z,1400
2022-11-09T12:21:49.899Z,1417
2022-11-09T12:22:50.495Z,900
2022-11-09T12:23:51.095Z,663
2022-11-09T12:24:51.694Z,663
2022-11-09T12:25:52.308Z,736
2022-11-09T12:27:10.989Z,804
2022-11-09T12:27:54.499Z,765
2022-11-09T12:28:55.098Z,675
2022-11-09T12:29:55.702Z,646
2022-11-09T12:30:56.299Z,646
2022-11-09T12:31:56.918Z,596
2022-11-09T12:32:57.515Z,579
2022-11-09T12:33:58.116Z,562
2022-11-09T12:34:58.715Z,545
2022-11-09T12:35:59.356Z,556
2022-11-09T12:36:59.936Z,511
2022-11-09T12:38:00.537Z,483
2022-11-09T12:39:01.134Z,461
2022-11-09T12:40:01.736Z,433
2022-11-09T12:41:02.333Z,410
2022-11-09T12:42:02.936Z,421
2022-11-09T12:43:03.535Z,410
2022-11-09T12:44:04.133Z,421
2022-11-09T12:45:04.735Z,399
2022-11-09T12:46:05.329Z,365
2022-11-09T12:47:05.952Z,343
2022-11-09T12:48:06.546Z,343
2022-11-09T12:49:07.143Z,343
2022-11-09T12:50:07.741Z,376
2022-11-09T12:51:08.337Z,388
2022-11-09T12:52:08.935Z,382
2022-11-09T12:53:09.535Z,405
2022-11-09T12:54:10.133Z,466
2022-11-09T12:55:10.752Z,500
2022-11-09T12:56:11.351Z,450
2022-11-09T12:57:11.951Z,421
2022-11-09T12:58:12.550Z,393
2022-11-09T12:59:13.149Z,388
2022-11-09T13:00:13.766Z,450
2022-11-09T13:01:14.447Z,928
2022-11-09T13:02:14.977Z,511
2022-11-09T13:03:15.592Z,562
2022-11-09T13:04:16.194Z,585
2022-11-09T13:05:16.793Z,618
2022-11-09T13:06:17.403Z,1299
2022-11-09T13:07:18.033Z,669
2022-11-09T13:08:18.624Z,686
2022-11-09T13:09:19.245Z,568
2022-11-09T13:10:19.863Z,483
2022-11-09T13:11:20.460Z,433
2022-11-09T13:12:21.062Z,444
2022-11-09T13:13:21.985Z,444
2022-11-09T13:14:22.272Z,444
2022-11-09T13:15:22.869Z,466
2022-11-09T13:16:23.470Z,551
2022-11-09T13:17:24.068Z,1029
2022-11-09T13:18:24.668Z,753
2022-11-09T13:19:25.266Z,579
2022-11-09T13:20:48.603Z,534
2022-11-09T13:21:26.567Z,528
2022-11-09T13:22:27.190Z,770
2022-11-09T13:23:47.765Z,1192
2022-11-09T13:24:28.418Z,568
2022-11-09T13:25:29.022Z,624
2022-11-09T13:26:29.618Z,607
2022-11-09T13:27:30.213Z,573
2022-11-09T13:28:30.814Z,613
2022-11-09T13:29:31.412Z,596
2022-11-09T13:30:32.017Z,995
2022-11-09T13:31:32.606Z,630
2022-11-09T13:32:33.394Z,832
2022-11-09T13:33:33.819Z,995
2022-11-09T13:34:34.422Z,1136
2022-11-09T13:35:35.020Z,1192
2022-11-09T13:36:35.639Z,1040
2022-11-09T13:37:36.242Z,573
2022-11-09T13:38:36.857Z,545
2022-11-09T13:39:37.455Z,601
2022-11-09T13:40:38.059Z,900
2022-11-09T13:41:38.659Z,478
2022-11-09T13:42:39.259Z,461
2022-11-09T13:43:39.865Z,444
2022-11-09T13:44:41.453Z,421
2022-11-09T13:45:42.049Z,405
2022-11-09T13:46:42.657Z,388
2022-11-09T13:47:43.253Z,399
2022-11-09T13:48:43.853Z,483
2022-11-09T13:49:44.452Z,753
2022-11-09T13:50:45.070Z,489
2022-11-09T13:51:45.702Z,495
2022-11-09T13:52:46.282Z,781
2022-11-09T13:53:47.347Z,1265
2022-11-09T13:54:47.948Z,978
2022-11-09T13:55:48.546Z,905
2022-11-09T13:56:49.144Z,556
2022-11-09T13:57:49.743Z,466
2022-11-09T13:58:50.343Z,421
2022-11-09T13:59:50.940Z,433
2022-11-09T14:00:51.540Z,680
2022-11-09T14:01:52.174Z,438
2022-11-09T14:02:52.743Z,500
2022-11-09T14:03:53.354Z,438
2022-11-09T14:04:53.943Z,421
2022-11-09T14:05:54.542Z,399
2022-11-09T14:06:55.193Z,393
2022-11-09T14:07:55.758Z,433
2022-11-09T14:08:56.374Z,635
2022-11-09T14:09:57.212Z,450
2022-11-09T14:10:57.795Z,433
2022-11-09T14:11:58.393Z,416
2022-11-09T14:12:58.994Z,371
2022-11-09T14:14:03.199Z,337
2022-11-09T14:15:01.205Z,320
2022-11-09T14:16:01.801Z,303
2022-11-09T14:17:02.412Z,298
2022-11-09T14:18:03.018Z,286
2022-11-09T14:19:03.612Z,258